sensor_id;sensor_type;location;lat;lon;timestamp;P1;P2;P0
56175;PMS5003;63065;51.082;17.016;2023-05-14T00:00:09;24;24;
56175;PMS5003;63065;51.082;17.016;2023-05-14T00:02:34;23;23;
56175;PMS5003;63065;51.082;17.016;2023-05-14T00:05:00;25;24;
56175;PMS5003;63065;51.082;17.016;2023-05-14T00:07:25;29;25;
56175;PMS5003;63065;51.082;17.016;2023-05-14T00:09:51;24;23;
56175;PMS5003;63065;51.082;17.016;2023-05-14T00:12:16;24;24;
56175;PMS5003;63065;51.082;17.016;2023-05-14T00:14:41;26;22;
56175;PMS5003;63065;51.082;17.016;2023-05-14T00:17:06;30;26;
56175;PMS5003;63065;51.082;17.016;2023-05-14T00:19:32;24;23;
56175;PMS5003;63065;51.082;17.016;2023-05-14T00:21:57;23;21;
56175;PMS5003;63065;51.082;17.016;2023-05-14T00:24:23;24;23;
56175;PMS5003;63065;51.082;17.016;2023-05-14T00:26:49;23;23;
56175;PMS5003;63065;51.082;17.016;2023-05-14T00:29:14;26;26;
56175;PMS5003;63065;51.082;17.016;2023-05-14T00:31:39;25;25;
56175;PMS5003;63065;51.082;17.016;2023-05-14T00:34:04;26;24;
56175;PMS5003;63065;51.082;17.016;2023-05-14T00:36:30;29;25;
56175;PMS5003;63065;51.082;17.016;2023-05-14T00:38:56;25;23;
56175;PMS5003;63065;51.082;17.016;2023-05-14T00:41:21;24;23;
56175;PMS5003;63065;51.082;17.016;2023-05-14T00:43:47;26;24;
56175;PMS5003;63065;51.082;17.016;2023-05-14T00:46:13;24;23;
56175;PMS5003;63065;51.082;17.016;2023-05-14T00:48:37;31;28;
56175;PMS5003;63065;51.082;17.016;2023-05-14T00:51:03;26;25;
56175;PMS5003;63065;51.082;17.016;2023-05-14T00:53:30;27;26;
56175;PMS5003;63065;51.082;17.016;2023-05-14T00:55:54;24;24;
56175;PMS5003;63065;51.082;17.016;2023-05-14T00:58:20;30;28;
56175;PMS5003;63065;51.082;17.016;2023-05-14T01:00:46;31;28;
56175;PMS5003;63065;51.082;17.016;2023-05-14T01:03:11;28;28;
56175;PMS5003;63065;51.082;17.016;2023-05-14T01:05:40;27;26;
56175;PMS5003;63065;51.082;17.016;2023-05-14T01:08:03;34;31;
56175;PMS5003;63065;51.082;17.016;2023-05-14T01:10:28;31;29;
56175;PMS5003;63065;51.082;17.016;2023-05-14T01:12:57;29;26;
56175;PMS5003;63065;51.082;17.016;2023-05-14T01:15:18;33;30;
56175;PMS5003;63065;51.082;17.016;2023-05-14T01:17:44;29;29;
56175;PMS5003;63065;51.082;17.016;2023-05-14T01:20:08;27;26;
56175;PMS5003;63065;51.082;17.016;2023-05-14T01:22:33;30;30;
56175;PMS5003;63065;51.082;17.016;2023-05-14T01:24:59;30;30;
56175;PMS5003;63065;51.082;17.016;2023-05-14T01:27:28;30;29;
56175;PMS5003;63065;51.082;17.016;2023-05-14T01:29:52;27;25;
56175;PMS5003;63065;51.082;17.016;2023-05-14T01:32:16;31;31;
56175;PMS5003;63065;51.082;17.016;2023-05-14T01:34:42;27;26;
56175;PMS5003;63065;51.082;17.016;2023-05-14T01:37:07;32;29;
56175;PMS5003;63065;51.082;17.016;2023-05-14T01:39:35;29;27;
56175;PMS5003;63065;51.082;17.016;2023-05-14T01:41:58;32;30;
56175;PMS5003;63065;51.082;17.016;2023-05-14T01:44:23;28;27;
56175;PMS5003;63065;51.082;17.016;2023-05-14T01:46:48;30;28;
56175;PMS5003;63065;51.082;17.016;2023-05-14T01:49:13;31;31;
56175;PMS5003;63065;51.082;17.016;2023-05-14T01:51:38;25;25;
56175;PMS5003;63065;51.082;17.016;2023-05-14T01:54:04;27;27;
56175;PMS5003;63065;51.082;17.016;2023-05-14T01:56:29;33;29;
56175;PMS5003;63065;51.082;17.016;2023-05-14T01:58:54;34;32;
56175;PMS5003;63065;51.082;17.016;2023-05-14T02:01:19;28;27;
56175;PMS5003;63065;51.082;17.016;2023-05-14T02:03:44;29;29;
56175;PMS5003;63065;51.082;17.016;2023-05-14T02:06:10;27;25;
56175;PMS5003;63065;51.082;17.016;2023-05-14T02:08:35;23;20;
56175;PMS5003;63065;51.082;17.016;2023-05-14T02:11:01;31;29;
56175;PMS5003;63065;51.082;17.016;2023-05-14T02:13:26;27;27;
56175;PMS5003;63065;51.082;17.016;2023-05-14T02:15:52;27;25;
56175;PMS5003;63065;51.082;17.016;2023-05-14T02:18:17;26;24;
56175;PMS5003;63065;51.082;17.016;2023-05-14T02:20:42;27;27;
56175;PMS5003;63065;51.082;17.016;2023-05-14T02:23:08;28;26;
56175;PMS5003;63065;51.082;17.016;2023-05-14T02:25:34;31;28;
56175;PMS5003;63065;51.082;17.016;2023-05-14T02:27:59;29;24;
56175;PMS5003;63065;51.082;17.016;2023-05-14T02:30:24;29;26;
56175;PMS5003;63065;51.082;17.016;2023-05-14T02:32:50;27;26;
56175;PMS5003;63065;51.082;17.016;2023-05-14T02:35:15;27;26;
56175;PMS5003;63065;51.082;17.016;2023-05-14T02:37:41;24;22;
56175;PMS5003;63065;51.082;17.016;2023-05-14T02:40:07;30;28;
56175;PMS5003;63065;51.082;17.016;2023-05-14T02:42:32;24;24;
56175;PMS5003;63065;51.082;17.016;2023-05-14T02:44:57;30;28;
56175;PMS5003;63065;51.082;17.016;2023-05-14T02:47:22;24;22;
56175;PMS5003;63065;51.082;17.016;2023-05-14T02:49:47;29;25;
56175;PMS5003;63065;51.082;17.016;2023-05-14T02:52:13;29;24;
56175;PMS5003;63065;51.082;17.016;2023-05-14T02:54:38;27;24;
56175;PMS5003;63065;51.082;17.016;2023-05-14T02:57:03;30;29;
56175;PMS5003;63065;51.082;17.016;2023-05-14T02:59:28;28;25;
56175;PMS5003;63065;51.082;17.016;2023-05-14T03:01:54;26;26;
56175;PMS5003;63065;51.082;17.016;2023-05-14T03:04:20;24;24;
56175;PMS5003;63065;51.082;17.016;2023-05-14T03:06:45;29;27;
56175;PMS5003;63065;51.082;17.016;2023-05-14T03:09:10;26;25;
56175;PMS5003;63065;51.082;17.016;2023-05-14T03:11:36;24;23;
56175;PMS5003;63065;51.082;17.016;2023-05-14T03:14:02;23;23;
56175;PMS5003;63065;51.082;17.016;2023-05-14T03:16:27;31;27;
56175;PMS5003;63065;51.082;17.016;2023-05-14T03:18:53;25;24;
56175;PMS5003;63065;51.082;17.016;2023-05-14T03:21:18;22;22;
56175;PMS5003;63065;51.082;17.016;2023-05-14T03:23:44;29;25;
56175;PMS5003;63065;51.082;17.016;2023-05-14T03:26:10;30;27;
56175;PMS5003;63065;51.082;17.016;2023-05-14T03:28:35;26;24;
56175;PMS5003;63065;51.082;17.016;2023-05-14T03:31:01;28;28;
56175;PMS5003;63065;51.082;17.016;2023-05-14T03:33:26;24;21;
56175;PMS5003;63065;51.082;17.016;2023-05-14T03:35:51;26;26;
56175;PMS5003;63065;51.082;17.016;2023-05-14T03:38:16;25;25;
56175;PMS5003;63065;51.082;17.016;2023-05-14T03:40:42;34;29;
56175;PMS5003;63065;51.082;17.016;2023-05-14T03:43:07;28;28;
56175;PMS5003;63065;51.082;17.016;2023-05-14T03:45:33;27;25;
56175;PMS5003;63065;51.082;17.016;2023-05-14T03:47:58;32;29;
56175;PMS5003;63065;51.082;17.016;2023-05-14T03:50:23;32;30;
56175;PMS5003;63065;51.082;17.016;2023-05-14T03:52:48;28;28;
56175;PMS5003;63065;51.082;17.016;2023-05-14T03:55:14;29;27;
56175;PMS5003;63065;51.082;17.016;2023-05-14T03:57:40;31;29;
56175;PMS5003;63065;51.082;17.016;2023-05-14T04:00:06;28;25;
56175;PMS5003;63065;51.082;17.016;2023-05-14T04:02:31;31;30;
56175;PMS5003;63065;51.082;17.016;2023-05-14T04:04:56;33;30;
56175;PMS5003;63065;51.082;17.016;2023-05-14T04:07:22;24;24;
56175;PMS5003;63065;51.082;17.016;2023-05-14T04:09:47;30;27;
56175;PMS5003;63065;51.082;17.016;2023-05-14T04:12:13;34;30;
56175;PMS5003;63065;51.082;17.016;2023-05-14T04:14:38;36;34;
56175;PMS5003;63065;51.082;17.016;2023-05-14T04:17:04;35;34;
56175;PMS5003;63065;51.082;17.016;2023-05-14T04:19:29;35;29;
56175;PMS5003;63065;51.082;17.016;2023-05-14T04:21:54;35;31;
56175;PMS5003;63065;51.082;17.016;2023-05-14T04:24:20;30;28;
56175;PMS5003;63065;51.082;17.016;2023-05-14T04:26:46;32;30;
56175;PMS5003;63065;51.082;17.016;2023-05-14T04:29:11;25;23;
56175;PMS5003;63065;51.082;17.016;2023-05-14T04:31:37;29;26;
56175;PMS5003;63065;51.082;17.016;2023-05-14T04:34:02;28;28;
56175;PMS5003;63065;51.082;17.016;2023-05-14T04:36:27;26;25;
56175;PMS5003;63065;51.082;17.016;2023-05-14T04:38:52;27;25;
56175;PMS5003;63065;51.082;17.016;2023-05-14T04:41:18;28;25;
56175;PMS5003;63065;51.082;17.016;2023-05-14T04:43:43;27;25;
56175;PMS5003;63065;51.082;17.016;2023-05-14T04:46:09;23;21;
56175;PMS5003;63065;51.082;17.016;2023-05-14T04:48:34;33;30;
56175;PMS5003;63065;51.082;17.016;2023-05-14T04:51:00;29;29;
56175;PMS5003;63065;51.082;17.016;2023-05-14T04:53:25;30;29;
56175;PMS5003;63065;51.082;17.016;2023-05-14T04:55:50;27;24;
56175;PMS5003;63065;51.082;17.016;2023-05-14T04:58:16;34;34;
56175;PMS5003;63065;51.082;17.016;2023-05-14T05:00:41;28;28;
56175;PMS5003;63065;51.082;17.016;2023-05-14T05:03:06;29;27;
56175;PMS5003;63065;51.082;17.016;2023-05-14T05:05:32;32;32;
56175;PMS5003;63065;51.082;17.016;2023-05-14T05:07:57;24;24;
56175;PMS5003;63065;51.082;17.016;2023-05-14T05:10:23;24;24;
56175;PMS5003;63065;51.082;17.016;2023-05-14T05:12:48;26;25;
56175;PMS5003;63065;51.082;17.016;2023-05-14T05:15:13;27;25;
56175;PMS5003;63065;51.082;17.016;2023-05-14T05:17:39;36;33;
56175;PMS5003;63065;51.082;17.016;2023-05-14T05:20:04;29;26;
56175;PMS5003;63065;51.082;17.016;2023-05-14T05:22:29;33;30;
56175;PMS5003;63065;51.082;17.016;2023-05-14T05:24:54;28;27;
56175;PMS5003;63065;51.082;17.016;2023-05-14T05:27:20;27;27;
56175;PMS5003;63065;51.082;17.016;2023-05-14T05:29:45;24;24;
56175;PMS5003;63065;51.082;17.016;2023-05-14T05:32:14;33;30;
56175;PMS5003;63065;51.082;17.016;2023-05-14T05:34:36;33;30;
56175;PMS5003;63065;51.082;17.016;2023-05-14T05:37:01;27;24;
56175;PMS5003;63065;51.082;17.016;2023-05-14T05:39:27;29;29;
56175;PMS5003;63065;51.082;17.016;2023-05-14T05:41:52;27;24;
56175;PMS5003;63065;51.082;17.016;2023-05-14T05:44:17;22;22;
56175;PMS5003;63065;51.082;17.016;2023-05-14T05:46:42;36;30;
56175;PMS5003;63065;51.082;17.016;2023-05-14T05:49:08;28;26;
56175;PMS5003;63065;51.082;17.016;2023-05-14T05:51:33;31;29;
56175;PMS5003;63065;51.082;17.016;2023-05-14T05:53:58;28;27;
56175;PMS5003;63065;51.082;17.016;2023-05-14T05:56:23;34;32;
56175;PMS5003;63065;51.082;17.016;2023-05-14T05:58:49;32;32;
56175;PMS5003;63065;51.082;17.016;2023-05-14T06:01:14;29;28;
56175;PMS5003;63065;51.082;17.016;2023-05-14T06:03:39;30;29;
56175;PMS5003;63065;51.082;17.016;2023-05-14T06:06:05;36;33;
56175;PMS5003;63065;51.082;17.016;2023-05-14T06:08:30;28;26;
56175;PMS5003;63065;51.082;17.016;2023-05-14T06:10:55;37;33;
56175;PMS5003;63065;51.082;17.016;2023-05-14T06:13:21;33;29;
56175;PMS5003;63065;51.082;17.016;2023-05-14T06:15:47;33;29;
56175;PMS5003;63065;51.082;17.016;2023-05-14T06:18:13;28;28;
56175;PMS5003;63065;51.082;17.016;2023-05-14T06:20:38;36;32;
56175;PMS5003;63065;51.082;17.016;2023-05-14T06:23:04;29;27;
56175;PMS5003;63065;51.082;17.016;2023-05-14T06:25:29;24;24;
56175;PMS5003;63065;51.082;17.016;2023-05-14T06:27:55;30;28;
56175;PMS5003;63065;51.082;17.016;2023-05-14T06:30:21;30;27;
56175;PMS5003;63065;51.082;17.016;2023-05-14T06:32:46;32;29;
56175;PMS5003;63065;51.082;17.016;2023-05-14T06:35:11;28;28;
56175;PMS5003;63065;51.082;17.016;2023-05-14T06:37:37;32;29;
56175;PMS5003;63065;51.082;17.016;2023-05-14T06:40:02;31;26;
56175;PMS5003;63065;51.082;17.016;2023-05-14T06:42:27;29;27;
56175;PMS5003;63065;51.082;17.016;2023-05-14T06:44:53;28;28;
56175;PMS5003;63065;51.082;17.016;2023-05-14T06:47:19;35;31;
56175;PMS5003;63065;51.082;17.016;2023-05-14T06:49:44;27;27;
56175;PMS5003;63065;51.082;17.016;2023-05-14T06:52:11;26;25;
56175;PMS5003;63065;51.082;17.016;2023-05-14T06:54:36;32;30;
56175;PMS5003;63065;51.082;17.016;2023-05-14T06:57:02;28;26;
56175;PMS5003;63065;51.082;17.016;2023-05-14T06:59:27;26;26;
56175;PMS5003;63065;51.082;17.016;2023-05-14T07:01:53;26;23;
56175;PMS5003;63065;51.082;17.016;2023-05-14T07:04:19;20;20;
56175;PMS5003;63065;51.082;17.016;2023-05-14T07:06:44;23;23;
56175;PMS5003;63065;51.082;17.016;2023-05-14T07:09:10;21;21;
56175;PMS5003;63065;51.082;17.016;2023-05-14T07:11:35;22;20;
56175;PMS5003;63065;51.082;17.016;2023-05-14T07:14:00;20;18;
56175;PMS5003;63065;51.082;17.016;2023-05-14T07:16:26;20;18;
56175;PMS5003;63065;51.082;17.016;2023-05-14T07:18:51;19;19;
56175;PMS5003;63065;51.082;17.016;2023-05-14T07:21:17;19;18;
56175;PMS5003;63065;51.082;17.016;2023-05-14T07:23:43;17;14;
56175;PMS5003;63065;51.082;17.016;2023-05-14T07:26:08;13;13;
56175;PMS5003;63065;51.082;17.016;2023-05-14T07:28:34;17;17;
56175;PMS5003;63065;51.082;17.016;2023-05-14T07:30:59;21;18;
56175;PMS5003;63065;51.082;17.016;2023-05-14T07:33:25;16;16;
56175;PMS5003;63065;51.082;17.016;2023-05-14T07:35:50;15;15;
56175;PMS5003;63065;51.082;17.016;2023-05-14T07:38:16;14;14;
56175;PMS5003;63065;51.082;17.016;2023-05-14T07:40:41;13;12;
56175;PMS5003;63065;51.082;17.016;2023-05-14T07:43:07;17;15;
56175;PMS5003;63065;51.082;17.016;2023-05-14T07:45:32;13;12;
56175;PMS5003;63065;51.082;17.016;2023-05-14T07:47:58;12;12;
56175;PMS5003;63065;51.082;17.016;2023-05-14T07:50:23;13;13;
56175;PMS5003;63065;51.082;17.016;2023-05-14T07:52:49;11;10;
56175;PMS5003;63065;51.082;17.016;2023-05-14T07:55:14;13;13;
56175;PMS5003;63065;51.082;17.016;2023-05-14T07:57:40;10;9;
56175;PMS5003;63065;51.082;17.016;2023-05-14T08:00:06;9;9;
56175;PMS5003;63065;51.082;17.016;2023-05-14T08:02:31;13;13;
56175;PMS5003;63065;51.082;17.016;2023-05-14T08:04:57;13;12;
56175;PMS5003;63065;51.082;17.016;2023-05-14T08:07:23;12;12;
56175;PMS5003;63065;51.082;17.016;2023-05-14T08:09:48;14;13;
56175;PMS5003;63065;51.082;17.016;2023-05-14T08:12:14;13;11;
56175;PMS5003;63065;51.082;17.016;2023-05-14T08:14:40;14;14;
56175;PMS5003;63065;51.082;17.016;2023-05-14T08:17:05;12;12;
56175;PMS5003;63065;51.082;17.016;2023-05-14T08:19:31;11;11;
56175;PMS5003;63065;51.082;17.016;2023-05-14T08:21:56;7;7;
56175;PMS5003;63065;51.082;17.016;2023-05-14T08:24:27;8;8;
56175;PMS5003;63065;51.082;17.016;2023-05-14T08:29:13;7;7;
56175;PMS5003;63065;51.082;17.016;2023-05-14T08:31:39;7;7;
56175;PMS5003;63065;51.082;17.016;2023-05-14T08:34:05;7;7;
56175;PMS5003;63065;51.082;17.016;2023-05-14T08:36:31;8;7;
56175;PMS5003;63065;51.082;17.016;2023-05-14T08:38:56;6;6;
56175;PMS5003;63065;51.082;17.016;2023-05-14T08:41:22;6;6;
56175;PMS5003;63065;51.082;17.016;2023-05-14T08:43:50;10;9;
56175;PMS5003;63065;51.082;17.016;2023-05-14T08:46:14;7;7;
56175;PMS5003;63065;51.082;17.016;2023-05-14T08:48:39;7;7;
56175;PMS5003;63065;51.082;17.016;2023-05-14T08:51:05;6;6;
56175;PMS5003;63065;51.082;17.016;2023-05-14T08:53:30;6;6;
56175;PMS5003;63065;51.082;17.016;2023-05-14T08:55:56;8;7;
56175;PMS5003;63065;51.082;17.016;2023-05-14T08:58:23;10;10;
56175;PMS5003;63065;51.082;17.016;2023-05-14T09:00:48;9;9;
56175;PMS5003;63065;51.082;17.016;2023-05-14T09:03:13;11;11;
56175;PMS5003;63065;51.082;17.016;2023-05-14T09:05:39;11;10;
56175;PMS5003;63065;51.082;17.016;2023-05-14T09:08:05;9;7;
56175;PMS5003;63065;51.082;17.016;2023-05-14T09:10:30;8;8;
56175;PMS5003;63065;51.082;17.016;2023-05-14T09:12:56;8;8;
56175;PMS5003;63065;51.082;17.016;2023-05-14T09:15:22;8;8;
56175;PMS5003;63065;51.082;17.016;2023-05-14T09:17:47;9;8;
56175;PMS5003;63065;51.082;17.016;2023-05-14T09:20:13;8;7;
56175;PMS5003;63065;51.082;17.016;2023-05-14T09:22:39;11;9;
56175;PMS5003;63065;51.082;17.016;2023-05-14T09:25:05;6;6;
56175;PMS5003;63065;51.082;17.016;2023-05-14T09:27:31;10;10;
56175;PMS5003;63065;51.082;17.016;2023-05-14T09:29:55;6;6;
56175;PMS5003;63065;51.082;17.016;2023-05-14T09:32:20;20;19;
56175;PMS5003;63065;51.082;17.016;2023-05-14T09:34:45;6;6;
56175;PMS5003;63065;51.082;17.016;2023-05-14T09:37:11;10;7;
56175;PMS5003;63065;51.082;17.016;2023-05-14T09:39:36;10;9;
56175;PMS5003;63065;51.082;17.016;2023-05-14T09:42:03;8;8;
56175;PMS5003;63065;51.082;17.016;2023-05-14T09:44:28;8;8;
56175;PMS5003;63065;51.082;17.016;2023-05-14T09:46:54;9;7;
56175;PMS5003;63065;51.082;17.016;2023-05-14T09:49:19;7;7;
56175;PMS5003;63065;51.082;17.016;2023-05-14T09:51:45;11;9;
56175;PMS5003;63065;51.082;17.016;2023-05-14T09:54:11;6;6;
56175;PMS5003;63065;51.082;17.016;2023-05-14T09:56:37;12;10;
56175;PMS5003;63065;51.082;17.016;2023-05-14T09:59:02;6;6;
56175;PMS5003;63065;51.082;17.016;2023-05-14T10:01:29;10;6;
56175;PMS5003;63065;51.082;17.016;2023-05-14T10:03:53;8;7;
56175;PMS5003;63065;51.082;17.016;2023-05-14T10:06:20;8;8;
56175;PMS5003;63065;51.082;17.016;2023-05-14T10:08:45;8;7;
56175;PMS5003;63065;51.082;17.016;2023-05-14T10:11:12;7;7;
56175;PMS5003;63065;51.082;17.016;2023-05-14T10:13:38;9;8;
56175;PMS5003;63065;51.082;17.016;2023-05-14T10:16:03;7;7;
56175;PMS5003;63065;51.082;17.016;2023-05-14T10:18:28;10;10;
56175;PMS5003;63065;51.082;17.016;2023-05-14T10:20:56;8;8;
56175;PMS5003;63065;51.082;17.016;2023-05-14T10:23:18;8;8;
56175;PMS5003;63065;51.082;17.016;2023-05-14T10:25:44;9;9;
56175;PMS5003;63065;51.082;17.016;2023-05-14T10:28:09;6;6;
56175;PMS5003;63065;51.082;17.016;2023-05-14T10:30:35;10;8;
56175;PMS5003;63065;51.082;17.016;2023-05-14T10:33:05;8;7;
56175;PMS5003;63065;51.082;17.016;2023-05-14T10:35:27;10;10;
56175;PMS5003;63065;51.082;17.016;2023-05-14T10:37:52;10;10;
56175;PMS5003;63065;51.082;17.016;2023-05-14T10:40:18;8;7;
56175;PMS5003;63065;51.082;17.016;2023-05-14T10:42:44;8;8;
56175;PMS5003;63065;51.082;17.016;2023-05-14T10:45:10;6;6;
56175;PMS5003;63065;51.082;17.016;2023-05-14T10:47:36;11;9;
56175;PMS5003;63065;51.082;17.016;2023-05-14T10:50:01;8;7;
56175;PMS5003;63065;51.082;17.016;2023-05-14T10:52:26;9;8;
56175;PMS5003;63065;51.082;17.016;2023-05-14T10:54:53;11;9;
56175;PMS5003;63065;51.082;17.016;2023-05-14T10:57:18;9;9;
56175;PMS5003;63065;51.082;17.016;2023-05-14T10:59:44;6;6;
56175;PMS5003;63065;51.082;17.016;2023-05-14T11:04:35;6;6;
56175;PMS5003;63065;51.082;17.016;2023-05-14T11:07:01;9;8;
56175;PMS5003;63065;51.082;17.016;2023-05-14T11:09:26;10;10;
56175;PMS5003;63065;51.082;17.016;2023-05-14T11:11:52;7;7;
56175;PMS5003;63065;51.082;17.016;2023-05-14T11:14:18;7;7;
56175;PMS5003;63065;51.082;17.016;2023-05-14T11:16:44;10;9;
56175;PMS5003;63065;51.082;17.016;2023-05-14T11:19:09;6;6;
56175;PMS5003;63065;51.082;17.016;2023-05-14T11:21:35;8;8;
56175;PMS5003;63065;51.082;17.016;2023-05-14T11:24:01;9;8;
56175;PMS5003;63065;51.082;17.016;2023-05-14T11:26:27;7;7;
56175;PMS5003;63065;51.082;17.016;2023-05-14T11:28:52;6;6;
56175;PMS5003;63065;51.082;17.016;2023-05-14T11:31:20;7;7;
56175;PMS5003;63065;51.082;17.016;2023-05-14T11:33:44;8;7;
56175;PMS5003;63065;51.082;17.016;2023-05-14T11:36:10;5;5;
56175;PMS5003;63065;51.082;17.016;2023-05-14T11:38:44;9;9;
56175;PMS5003;63065;51.082;17.016;2023-05-14T11:41:01;7;7;
56175;PMS5003;63065;51.082;17.016;2023-05-14T11:43:27;6;6;
56175;PMS5003;63065;51.082;17.016;2023-05-14T11:45:53;7;7;
56175;PMS5003;63065;51.082;17.016;2023-05-14T11:48:19;10;10;
56175;PMS5003;63065;51.082;17.016;2023-05-14T11:50:45;8;7;
56175;PMS5003;63065;51.082;17.016;2023-05-14T11:53:10;9;9;
56175;PMS5003;63065;51.082;17.016;2023-05-14T11:55:35;7;7;
56175;PMS5003;63065;51.082;17.016;2023-05-14T11:58:00;6;6;
56175;PMS5003;63065;51.082;17.016;2023-05-14T12:00:26;7;6;
56175;PMS5003;63065;51.082;17.016;2023-05-14T12:02:52;9;8;
56175;PMS5003;63065;51.082;17.016;2023-05-14T12:05:18;7;7;
56175;PMS5003;63065;51.082;17.016;2023-05-14T12:07:44;9;9;
56175;PMS5003;63065;51.082;17.016;2023-05-14T12:10:10;8;7;
56175;PMS5003;63065;51.082;17.016;2023-05-14T12:12:35;9;9;
56175;PMS5003;63065;51.082;17.016;2023-05-14T12:15:01;7;7;
56175;PMS5003;63065;51.082;17.016;2023-05-14T12:17:27;7;7;
56175;PMS5003;63065;51.082;17.016;2023-05-14T12:19:53;9;9;
56175;PMS5003;63065;51.082;17.016;2023-05-14T12:22:19;15;13;
56175;PMS5003;63065;51.082;17.016;2023-05-14T12:27:09;7;7;
56175;PMS5003;63065;51.082;17.016;2023-05-14T12:29:35;9;9;
56175;PMS5003;63065;51.082;17.016;2023-05-14T12:32:00;7;7;
56175;PMS5003;63065;51.082;17.016;2023-05-14T12:34:26;8;8;
56175;PMS5003;63065;51.082;17.016;2023-05-14T12:36:52;8;8;
56175;PMS5003;63065;51.082;17.016;2023-05-14T12:39:18;9;9;
56175;PMS5003;63065;51.082;17.016;2023-05-14T12:41:44;9;9;
56175;PMS5003;63065;51.082;17.016;2023-05-14T12:44:09;10;9;
56175;PMS5003;63065;51.082;17.016;2023-05-14T12:46:35;10;10;
56175;PMS5003;63065;51.082;17.016;2023-05-14T12:49:00;11;10;
56175;PMS5003;63065;51.082;17.016;2023-05-14T12:51:26;11;11;
56175;PMS5003;63065;51.082;17.016;2023-05-14T12:53:52;9;7;
56175;PMS5003;63065;51.082;17.016;2023-05-14T12:56:18;10;9;
56175;PMS5003;63065;51.082;17.016;2023-05-14T12:58:43;10;8;
56175;PMS5003;63065;51.082;17.016;2023-05-14T13:01:09;8;8;
56175;PMS5003;63065;51.082;17.016;2023-05-14T13:03:35;9;9;
56175;PMS5003;63065;51.082;17.016;2023-05-14T13:06:00;9;9;
56175;PMS5003;63065;51.082;17.016;2023-05-14T13:08:25;10;10;
56175;PMS5003;63065;51.082;17.016;2023-05-14T13:10:51;9;9;
56175;PMS5003;63065;51.082;17.016;2023-05-14T13:13:17;7;7;
56175;PMS5003;63065;51.082;17.016;2023-05-14T13:15:43;10;10;
56175;PMS5003;63065;51.082;17.016;2023-05-14T13:18:09;14;12;
56175;PMS5003;63065;51.082;17.016;2023-05-14T13:20:34;10;10;
56175;PMS5003;63065;51.082;17.016;2023-05-14T13:23:00;9;9;
56175;PMS5003;63065;51.082;17.016;2023-05-14T13:25:25;12;12;
56175;PMS5003;63065;51.082;17.016;2023-05-14T13:27:51;9;9;
56175;PMS5003;63065;51.082;17.016;2023-05-14T13:30:17;11;11;
56175;PMS5003;63065;51.082;17.016;2023-05-14T13:32:43;14;14;
56175;PMS5003;63065;51.082;17.016;2023-05-14T13:35:08;13;13;
56175;PMS5003;63065;51.082;17.016;2023-05-14T13:37:34;11;11;
56175;PMS5003;63065;51.082;17.016;2023-05-14T13:40:00;14;13;
56175;PMS5003;63065;51.082;17.016;2023-05-14T13:42:25;13;13;
56175;PMS5003;63065;51.082;17.016;2023-05-14T13:44:51;16;15;
56175;PMS5003;63065;51.082;17.016;2023-05-14T13:47:16;14;14;
56175;PMS5003;63065;51.082;17.016;2023-05-14T13:49:43;16;14;
56175;PMS5003;63065;51.082;17.016;2023-05-14T13:52:08;14;14;
56175;PMS5003;63065;51.082;17.016;2023-05-14T13:54:33;19;15;
56175;PMS5003;63065;51.082;17.016;2023-05-14T13:56:59;18;16;
56175;PMS5003;63065;51.082;17.016;2023-05-14T13:59:24;11;11;
56175;PMS5003;63065;51.082;17.016;2023-05-14T14:01:50;13;13;
56175;PMS5003;63065;51.082;17.016;2023-05-14T14:04:16;13;13;
56175;PMS5003;63065;51.082;17.016;2023-05-14T14:06:41;13;11;
56175;PMS5003;63065;51.082;17.016;2023-05-14T14:09:06;16;16;
56175;PMS5003;63065;51.082;17.016;2023-05-14T14:11:32;15;14;
56175;PMS5003;63065;51.082;17.016;2023-05-14T14:13:58;16;14;
56175;PMS5003;63065;51.082;17.016;2023-05-14T14:16:23;18;17;
56175;PMS5003;63065;51.082;17.016;2023-05-14T14:18:48;14;14;
56175;PMS5003;63065;51.082;17.016;2023-05-14T14:21:14;15;15;
56175;PMS5003;63065;51.082;17.016;2023-05-14T14:23:40;25;22;
56175;PMS5003;63065;51.082;17.016;2023-05-14T14:26:05;18;16;
56175;PMS5003;63065;51.082;17.016;2023-05-14T14:28:31;19;17;
56175;PMS5003;63065;51.082;17.016;2023-05-14T14:30:56;20;20;
56175;PMS5003;63065;51.082;17.016;2023-05-14T14:33:22;17;17;
56175;PMS5003;63065;51.082;17.016;2023-05-14T14:35:47;17;17;
56175;PMS5003;63065;51.082;17.016;2023-05-14T14:38:14;20;17;
56175;PMS5003;63065;51.082;17.016;2023-05-14T14:40:38;21;18;
56175;PMS5003;63065;51.082;17.016;2023-05-14T14:43:03;18;18;
56175;PMS5003;63065;51.082;17.016;2023-05-14T14:45:29;14;14;
56175;PMS5003;63065;51.082;17.016;2023-05-14T14:50:20;20;18;
56175;PMS5003;63065;51.082;17.016;2023-05-14T14:52:46;17;17;
56175;PMS5003;63065;51.082;17.016;2023-05-14T14:55:12;17;17;
56175;PMS5003;63065;51.082;17.016;2023-05-14T14:57:37;20;19;
56175;PMS5003;63065;51.082;17.016;2023-05-14T15:00:03;19;19;
56175;PMS5003;63065;51.082;17.016;2023-05-14T15:02:28;17;16;
56175;PMS5003;63065;51.082;17.016;2023-05-14T15:04:54;17;16;
56175;PMS5003;63065;51.082;17.016;2023-05-14T15:07:19;16;16;
56175;PMS5003;63065;51.082;17.016;2023-05-14T15:09:45;18;16;
56175;PMS5003;63065;51.082;17.016;2023-05-14T15:12:10;15;14;
56175;PMS5003;63065;51.082;17.016;2023-05-14T15:14:35;21;18;
56175;PMS5003;63065;51.082;17.016;2023-05-14T15:17:00;17;17;
56175;PMS5003;63065;51.082;17.016;2023-05-14T15:19:27;19;18;
56175;PMS5003;63065;51.082;17.016;2023-05-14T15:21:51;17;16;
56175;PMS5003;63065;51.082;17.016;2023-05-14T15:24:17;18;16;
56175;PMS5003;63065;51.082;17.016;2023-05-14T15:26:43;21;20;
56175;PMS5003;63065;51.082;17.016;2023-05-14T15:29:08;19;18;
56175;PMS5003;63065;51.082;17.016;2023-05-14T15:31:34;19;19;
56175;PMS5003;63065;51.082;17.016;2023-05-14T15:34:00;17;17;
56175;PMS5003;63065;51.082;17.016;2023-05-14T15:36:25;18;16;
56175;PMS5003;63065;51.082;17.016;2023-05-14T15:38:50;14;14;
56175;PMS5003;63065;51.082;17.016;2023-05-14T15:41:16;17;15;
56175;PMS5003;63065;51.082;17.016;2023-05-14T15:43:42;17;16;
56175;PMS5003;63065;51.082;17.016;2023-05-14T15:46:07;17;17;
56175;PMS5003;63065;51.082;17.016;2023-05-14T15:48:32;19;17;
56175;PMS5003;63065;51.082;17.016;2023-05-14T15:50:58;18;16;
56175;PMS5003;63065;51.082;17.016;2023-05-14T15:53:24;16;15;
56175;PMS5003;63065;51.082;17.016;2023-05-14T15:55:50;16;16;
56175;PMS5003;63065;51.082;17.016;2023-05-14T15:58:15;17;17;
56175;PMS5003;63065;51.082;17.016;2023-05-14T16:00:41;21;18;
56175;PMS5003;63065;51.082;17.016;2023-05-14T16:03:06;21;19;
56175;PMS5003;63065;51.082;17.016;2023-05-14T16:05:31;16;16;